APRS [IN73GL], 0 Stunde(n), DL3EL [19:04:41, 0s].
EA1FHR 43.28.72N 005.26.41WIN73GL 1.451km 92°E17:02:21ZMMDVM MMDVM HS Hat 439.1500/439.1500 CC1
EA1HWD 43.28.96N 005.26.30WIN73GL 1.656km 77°ENE17:00:52Z144.575FM Local frecuency VHF. 434.2500/434.2500 CC1
EB1GEM 43.30.00N 005.36.07WIN73EM 11.757km 281°W16:51:22ZWX3in1Plus2.0 U=13.3V,T=??.?C/??.?F(3EB1GEM-3)
EA1JBU 43.30.80N 005.16.20WIN73IM 15.640km 76°ENE17:00:30ZEA1JBU(3EA1JBU-2)
EA1JBE 43.30.90N 005.16.15WIN73IM 15.764km 75°ENE17:02:47ZMAIN QTH http://qrz.com/db/ea1jbe(3EA1JBE-1)
MAIN QTH http://qrz.com/db/ea1jbe(2EA1JBE-13)
ED1ZAS 43.27.52N 005.40.17WIN73DL 17.204km 263°W17:02:45ZRD985 438.2250/430.6250 CC1
EA1FLQ 43.22.00N 005.36.35WIN73EI 17.285km 224°SW17:01:10ZMMDVM DVMega 439.9750/439.9750 CC1
EA1DZR 43.31.48N 005.40.00WIN73EM 17.547km 287°WNW17:01:58ZMMDVM DVS 434.3500/434.3500 CC1
ED1ZAE 43.27.97N 005.40.54WIN73DL 17.609km 265°W17:02:22Z400 M. PICO SAN MARTIN (GIJON) 13.3V,24.3C(3ED1ZAE-3)
2m Voice 145.5875 -0.600 Mhz(2ED1ZAE-C)
EA1IEJ 43.31.81N 005.40.25WIN73DM 18.057km 288°WNW17:01:27ZMMDVM MMDVM HS Hat 438.8500/438.8500 CC6
EA1FFA 43.31.53N 005.40.64WIN73DM 18.403km 286°WNW17:01:31ZMMDVM MMDVM HS Hat 438.8000/438.8000 CC1
LEEL 43.32.98N 005.41.71WIN73DN 20.654km 292°WNW17:00:28ZHelipuerto de El Musel: LEAS 271600Z 10003KT 070V160 CAVOK 18/11 Q1019 NOSIG=
EB1TK 43.32.22N 005.42.32WIN73DM 20.936km 288°WNW17:00:50ZEB1TK-6>CQ,TCPIP*,qAC,T2SPAIN2:SatGate - APRS Satellite Traffic and Reporting System (ASTARS)(3EB1TK-6)
Wind 000°/000kn, Böen bis 000kn, Temp 17.78c, Regen 0.5mm, letzte 24h 0.5mm, seit 0h 0.5mm, Baro 1022.3h, Hum: 81%(2EB1TK-13)
EA1AQK 43.16.49N 005.35.99WIN73EG 25.427km 207°SSW17:00:42ZMMDVM MMDVM HS Hat 439.8500/439.8500 CC1
EA1IPU 43.26.21N 005.46.62WIN73CK 26.144km 260°W17:00:37ZMMDVM MMDVM HS Hat 439.8000/439.8000 CC1
LEMR 43.25.83N 005.49.60WIN73CK 30.231km 260°W17:00:28ZAerodromo de la Morgal: LEAS 271600Z 10003KT 070V160 CAVOK 18/11 Q1019 NOSIG=
LEGM 43.26.15N 005.49.84WIN73CK 30.432km 261°W17:00:26ZHelipuerto de La Morgal: LEAS 271600Z 10003KT 070V160 CAVOK 18/11 Q1019 NOSIG=
LEHU 43.22.63N 005.49.57WIN73CJ 31.807km 249°WSW17:00:23ZHelipuerto del HUCA: LEAS 271600Z 10003KT 070V160 CAVOK 18/11 Q1019 NOSIG=
ED1ZBF 43.19.16N 005.06.74WIN73KH 33.099km 122°ESE17:02:47ZRD625 438.4750/430.8750 CC1
33D00 43.21.63N 005.51.13WIN73BI 34.435km 248°WSW17:02:13Z33-D-00 Protección Civil REMER / Delegación del Gobierno en Asturias
EA1JAY 43.21.54N 005.51.34WIN73BI 34.772km 248°WSW17:00:30ZEA1JAY(3EA1JAY-2)
434.525MHz Nodo TETRA DMO(2EA1JAY-4)
EA1YR 43.22.09N 005.51.86WIN73BI 35.039km 250°WSW17:02:38ZMMDVM DVS 434.3500/434.3500 CC1
EA1L 43.20.38N 005.51.13WIN73BI 35.396km 244°WSW16:44:09ZWind 048°/004kn, Böen bis 009kn, Temp 17.78c, Regen 0.0mm, letzte 24h 0.0mm, seit 0h 0.0mm, Baro 1017.5h, Hum: 54%(3EA1L-13)
ea1l@ure.es V=13.8V,T=??.?C(2EA1L)
EA1HWX 43.19.87N 005.50.85WIN73BH 35.475km 243°WSW17:01:58ZMMDVM MMDVM HS Dual Hat 439.8250/430.4000 CC11
ED1ZAU 43.23.04N 005.52.75WIN73BJ 35.602km 253°WSW17:02:50ZRD625 438.5000/430.9000 CC1
EA1HJA 43.21.47N 005.52.09WIN73BI 35.749km 248°WSW16:59:28Z IN73FL WX3IN1+ 2.0 - V=13.2V,TX TEMP=33.3C(3EA1HJA-2)
IN73FL WX3IN1+ 2.0 - V=14.0V,TX TEMP=43.8C(2EA1HJA)
EA1AHA 43.32.72N 005.54.38WIN73BN 36.869km 282°WNW16:57:08ZMMDVM MMDVM HS Hat 432.0000/432.0000 CC1
Wind 000°/000kn, Böen bis 001kn, Temp 21.11c, Regen 0.0mm, letzte 24h 0.0mm, seit 0h 0.0mm, Baro 1020.9h, Hum: 56%(2EA1AHA-13)
EA1IMW 43.14.36N 005.46.93WIN73CF 37.370km 225°SW17:00:55ZGRUPO RADIO GALENA (GRG) 433.4500/433.4500 CC1
EA1ABW 43.19.65N 005.53.05WIN73BH 38.315km 244°WSW17:03:49ZMMDVM MMDVM HS Hat 439.8250/439.8250 CC1
https://aprsdroid.org/(2EA1ABW-5)
EB1DGC 43.12.60N 005.45.59WIN73CF 38.610km 219°SW17:01:07ZMMDVM MMDVM HS Hat 433.4500/433.4500 CC1
ED1ZAY 43.29.47N 005.56.54WIN73AL 39.081km 272°W17:02:49ZRD625 438.3000/430.7000 CC1
EA1JBL 43.12.28N 005.47.42WIN73CE 40.644km 221°SW17:02:01ZMMDVM DVMega 435.3000/435.3000 CC1
EA1HWA 43.12.00N 005.47.40WIN73CE 41.023km 221°SW17:02:28ZMMDVM MMDVM HS Hat 433.4500/433.4500 CC1
ED1ZAD 43.07.90N 005.38.52WIN73ED 41.385km 201°SSW17:04:16ZED1ZAD-3 APRS Digi/Igate(3ED1ZAD-3)
EA1DHE 43.33.98N 005.58.57WIN73AN 42.861km 283°WNW17:02:13ZMMDVM DVS 434.3500/434.3500 CC1
EA1RCG 43.09.45N 005.49.78WIN73CD 46.701km 220°SW17:02:14ZGRUPO RADIO GALENA (GRG) 433.4500/433.4500 CC1

aprs.pl 5.0.011w DL3EL © 2006-2021 [1059014]